Terminal Aerodrome Forecast
Issued by NWS Duluth, MN

Home | Current Version | Previous Version | Text Only | Print | Product List | Glossary On
Versions: 1 2 3 4 5 6 7 8 9 10 11 12 13 14 15 16 17 18 19 20 21 22 23 24 25 26 27 28
000
FTUS43 KDLH 021700 RRA
TAFDLH
TAF
KDLH 021742Z 0218/0318 24012KT P6SM SKC
     FM030200 19012KT P6SM BKN080
     FM030700 20012G18KT 4SM -SN BKN025 OVC040
     FM031000 20012KT 1SM -SN OVC015
     FM031400 25011KT 1/2SM SN FG OVC007=

USA.gov is the U.S. government's official web portal to all federal, state and local government web resources and services.